sensor_id;sensor_type;location;lat;lon;timestamp;temperature;humidity
63313;DHT22;49442;45.640;13.812;2023-06-19T00:01:48;20.10;95.50
63313;DHT22;49442;45.640;13.812;2023-06-19T00:04:13;20.10;95.40
63313;DHT22;49442;45.640;13.812;2023-06-19T00:06:39;20.10;95.40
63313;DHT22;49442;45.640;13.812;2023-06-19T00:09:06;20.10;95.70
63313;DHT22;49442;45.640;13.812;2023-06-19T00:11:32;20.00;95.50
63313;DHT22;49442;45.640;13.812;2023-06-19T00:13:58;20.10;95.60
63313;DHT22;49442;45.640;13.812;2023-06-19T00:16:23;20.00;95.60
63313;DHT22;49442;45.640;13.812;2023-06-19T00:18:51;20.00;95.50
63313;DHT22;49442;45.640;13.812;2023-06-19T00:21:24;20.10;95.60
63313;DHT22;49442;45.640;13.812;2023-06-19T00:23:50;20.00;95.60
63313;DHT22;49442;45.640;13.812;2023-06-19T00:26:16;20.00;95.50
63313;DHT22;49442;45.640;13.812;2023-06-19T00:28:43;19.90;95.30
63313;DHT22;49442;45.640;13.812;2023-06-19T00:31:11;19.90;95.00
63313;DHT22;49442;45.640;13.812;2023-06-19T00:33:40;20.00;95.00
63313;DHT22;49442;45.640;13.812;2023-06-19T00:36:10;20.00;94.60
63313;DHT22;49442;45.640;13.812;2023-06-19T00:38:36;20.10;94.60
63313;DHT22;49442;45.640;13.812;2023-06-19T00:41:03;20.10;94.50
63313;DHT22;49442;45.640;13.812;2023-06-19T00:43:28;20.00;94.40
63313;DHT22;49442;45.640;13.812;2023-06-19T00:45:56;20.00;94.50
63313;DHT22;49442;45.640;13.812;2023-06-19T00:48:22;20.00;94.40
63313;DHT22;49442;45.640;13.812;2023-06-19T00:50:49;20.00;94.30
63313;DHT22;49442;45.640;13.812;2023-06-19T00:53:15;19.90;94.20
63313;DHT22;49442;45.640;13.812;2023-06-19T00:55:42;19.90;94.10
63313;DHT22;49442;45.640;13.812;2023-06-19T00:58:09;19.90;94.20
63313;DHT22;49442;45.640;13.812;2023-06-19T01:00:35;19.80;94.20
63313;DHT22;49442;45.640;13.812;2023-06-19T01:03:01;19.80;94.20
63313;DHT22;49442;45.640;13.812;2023-06-19T01:05:26;19.80;94.30
63313;DHT22;49442;45.640;13.812;2023-06-19T01:10:27;19.70;94.80
63313;DHT22;49442;45.640;13.812;2023-06-19T01:13:00;19.60;94.80
63313;DHT22;49442;45.640;13.812;2023-06-19T01:15:27;19.60;94.90
63313;DHT22;49442;45.640;13.812;2023-06-19T01:17:55;19.70;94.70
63313;DHT22;49442;45.640;13.812;2023-06-19T01:20:22;19.60;95.00
63313;DHT22;49442;45.640;13.812;2023-06-19T01:22:47;19.60;94.40
63313;DHT22;49442;45.640;13.812;2023-06-19T01:25:13;19.60;94.20
63313;DHT22;49442;45.640;13.812;2023-06-19T01:27:40;19.70;94.30
63313;DHT22;49442;45.640;13.812;2023-06-19T01:30:07;19.60;94.50
63313;DHT22;49442;45.640;13.812;2023-06-19T01:35:09;19.60;93.80
63313;DHT22;49442;45.640;13.812;2023-06-19T01:37:37;19.60;93.70
63313;DHT22;49442;45.640;13.812;2023-06-19T01:40:05;19.60;93.20
63313;DHT22;49442;45.640;13.812;2023-06-19T01:42:37;19.70;93.00
63313;DHT22;49442;45.640;13.812;2023-06-19T01:45:03;19.70;92.30
63313;DHT22;49442;45.640;13.812;2023-06-19T01:47:29;19.70;92.30
63313;DHT22;49442;45.640;13.812;2023-06-19T01:49:55;19.70;91.90
63313;DHT22;49442;45.640;13.812;2023-06-19T01:52:21;19.70;92.00
63313;DHT22;49442;45.640;13.812;2023-06-19T01:54:46;19.70;91.90
63313;DHT22;49442;45.640;13.812;2023-06-19T01:57:12;19.60;91.50
63313;DHT22;49442;45.640;13.812;2023-06-19T01:59:38;19.60;91.50
63313;DHT22;49442;45.640;13.812;2023-06-19T02:02:04;19.60;91.70
63313;DHT22;49442;45.640;13.812;2023-06-19T02:04:32;19.60;90.90
63313;DHT22;49442;45.640;13.812;2023-06-19T02:06:57;19.60;91.00
63313;DHT22;49442;45.640;13.812;2023-06-19T02:09:23;19.50;91.00
63313;DHT22;49442;45.640;13.812;2023-06-19T02:11:49;19.50;90.70
63313;DHT22;49442;45.640;13.812;2023-06-19T02:14:14;19.50;90.80
63313;DHT22;49442;45.640;13.812;2023-06-19T02:16:40;19.50;90.60
63313;DHT22;49442;45.640;13.812;2023-06-19T02:19:11;19.50;90.20
63313;DHT22;49442;45.640;13.812;2023-06-19T02:21:37;19.50;89.70
63313;DHT22;49442;45.640;13.812;2023-06-19T02:24:03;19.50;89.50
63313;DHT22;49442;45.640;13.812;2023-06-19T02:26:29;19.50;90.00
63313;DHT22;49442;45.640;13.812;2023-06-19T02:28:56;19.50;89.90
63313;DHT22;49442;45.640;13.812;2023-06-19T02:31:22;19.60;89.80
63313;DHT22;49442;45.640;13.812;2023-06-19T02:33:48;19.50;89.60
63313;DHT22;49442;45.640;13.812;2023-06-19T02:36:14;19.50;89.10
63313;DHT22;49442;45.640;13.812;2023-06-19T02:38:48;19.50;88.80
63313;DHT22;49442;45.640;13.812;2023-06-19T02:41:14;19.60;88.60
63313;DHT22;49442;45.640;13.812;2023-06-19T02:43:41;19.50;87.80
63313;DHT22;49442;45.640;13.812;2023-06-19T02:46:07;19.50;87.40
63313;DHT22;49442;45.640;13.812;2023-06-19T02:48:33;19.50;88.30
63313;DHT22;49442;45.640;13.812;2023-06-19T02:50:59;19.60;87.60
63313;DHT22;49442;45.640;13.812;2023-06-19T02:53:24;19.60;87.10
63313;DHT22;49442;45.640;13.812;2023-06-19T02:55:50;19.60;87.40
63313;DHT22;49442;45.640;13.812;2023-06-19T02:58:16;19.60;86.30
63313;DHT22;49442;45.640;13.812;2023-06-19T03:00:42;19.60;86.50
63313;DHT22;49442;45.640;13.812;2023-06-19T03:03:07;19.60;86.80
63313;DHT22;49442;45.640;13.812;2023-06-19T03:05:33;19.60;86.80
63313;DHT22;49442;45.640;13.812;2023-06-19T03:07:59;19.50;86.20
63313;DHT22;49442;45.640;13.812;2023-06-19T03:10:24;19.60;87.10
63313;DHT22;49442;45.640;13.812;2023-06-19T03:12:50;19.60;86.00
63313;DHT22;49442;45.640;13.812;2023-06-19T03:15:16;19.60;86.00
63313;DHT22;49442;45.640;13.812;2023-06-19T03:17:42;19.50;86.20
63313;DHT22;49442;45.640;13.812;2023-06-19T03:20:07;19.50;86.50
63313;DHT22;49442;45.640;13.812;2023-06-19T03:22:40;19.60;86.40
63313;DHT22;49442;45.640;13.812;2023-06-19T03:25:06;19.60;86.60
63313;DHT22;49442;45.640;13.812;2023-06-19T03:27:33;19.60;87.00
63313;DHT22;49442;45.640;13.812;2023-06-19T03:29:58;19.60;87.30
63313;DHT22;49442;45.640;13.812;2023-06-19T03:32:24;19.60;86.80
63313;DHT22;49442;45.640;13.812;2023-06-19T03:34:50;19.60;87.10
63313;DHT22;49442;45.640;13.812;2023-06-19T03:37:16;19.60;87.30
63313;DHT22;49442;45.640;13.812;2023-06-19T03:39:42;19.70;86.70
63313;DHT22;49442;45.640;13.812;2023-06-19T03:42:08;19.60;86.60
63313;DHT22;49442;45.640;13.812;2023-06-19T03:44:34;19.70;87.20
63313;DHT22;49442;45.640;13.812;2023-06-19T03:46:59;19.70;87.80
63313;DHT22;49442;45.640;13.812;2023-06-19T03:49:25;19.70;88.00
63313;DHT22;49442;45.640;13.812;2023-06-19T03:51:52;19.60;87.50
63313;DHT22;49442;45.640;13.812;2023-06-19T03:54:20;19.50;88.70
63313;DHT22;49442;45.640;13.812;2023-06-19T03:56:45;19.50;88.50
63313;DHT22;49442;45.640;13.812;2023-06-19T03:59:11;19.50;89.10
63313;DHT22;49442;45.640;13.812;2023-06-19T04:01:37;19.50;90.00
63313;DHT22;49442;45.640;13.812;2023-06-19T04:04:02;19.50;89.50
63313;DHT22;49442;45.640;13.812;2023-06-19T04:06:28;19.50;89.90
63313;DHT22;49442;45.640;13.812;2023-06-19T04:08:54;19.50;90.00
63313;DHT22;49442;45.640;13.812;2023-06-19T04:11:19;19.50;90.40
63313;DHT22;49442;45.640;13.812;2023-06-19T04:13:46;19.50;90.20
63313;DHT22;49442;45.640;13.812;2023-06-19T04:16:12;19.50;90.40
63313;DHT22;49442;45.640;13.812;2023-06-19T04:18:38;19.60;90.60
63313;DHT22;49442;45.640;13.812;2023-06-19T04:21:04;19.60;90.70
63313;DHT22;49442;45.640;13.812;2023-06-19T04:23:29;19.70;90.80
63313;DHT22;49442;45.640;13.812;2023-06-19T04:25:55;19.60;91.20
63313;DHT22;49442;45.640;13.812;2023-06-19T04:28:21;19.60;91.10
63313;DHT22;49442;45.640;13.812;2023-06-19T04:30:46;19.70;91.20
63313;DHT22;49442;45.640;13.812;2023-06-19T04:33:12;19.70;91.50
63313;DHT22;49442;45.640;13.812;2023-06-19T04:35:38;19.70;91.60
63313;DHT22;49442;45.640;13.812;2023-06-19T04:38:09;19.70;91.90
63313;DHT22;49442;45.640;13.812;2023-06-19T04:40:35;19.70;91.90
63313;DHT22;49442;45.640;13.812;2023-06-19T04:43:03;19.70;92.10
63313;DHT22;49442;45.640;13.812;2023-06-19T04:45:31;19.70;91.60
63313;DHT22;49442;45.640;13.812;2023-06-19T04:47:57;19.70;91.60
63313;DHT22;49442;45.640;13.812;2023-06-19T04:50:22;19.70;91.80
63313;DHT22;49442;45.640;13.812;2023-06-19T04:52:48;19.70;91.90
63313;DHT22;49442;45.640;13.812;2023-06-19T04:55:16;19.80;91.90
63313;DHT22;49442;45.640;13.812;2023-06-19T04:57:41;19.80;92.10
63313;DHT22;49442;45.640;13.812;2023-06-19T05:00:07;19.90;92.30
63313;DHT22;49442;45.640;13.812;2023-06-19T05:02:35;20.00;92.10
63313;DHT22;49442;45.640;13.812;2023-06-19T05:05:01;20.00;91.90
63313;DHT22;49442;45.640;13.812;2023-06-19T05:07:32;20.10;91.70
63313;DHT22;49442;45.640;13.812;2023-06-19T05:09:58;20.20;91.90
63313;DHT22;49442;45.640;13.812;2023-06-19T05:12:24;20.30;92.00
63313;DHT22;49442;45.640;13.812;2023-06-19T05:14:50;20.30;92.10
63313;DHT22;49442;45.640;13.812;2023-06-19T05:17:15;20.40;92.30
63313;DHT22;49442;45.640;13.812;2023-06-19T05:19:41;20.50;92.60
63313;DHT22;49442;45.640;13.812;2023-06-19T05:22:07;20.60;92.30
63313;DHT22;49442;45.640;13.812;2023-06-19T05:24:33;20.70;92.70
63313;DHT22;49442;45.640;13.812;2023-06-19T05:26:59;20.80;92.20
63313;DHT22;49442;45.640;13.812;2023-06-19T05:29:24;20.90;92.70
63313;DHT22;49442;45.640;13.812;2023-06-19T05:31:50;21.00;93.50
63313;DHT22;49442;45.640;13.812;2023-06-19T05:34:16;21.10;93.70
63313;DHT22;49442;45.640;13.812;2023-06-19T05:36:42;21.20;93.10
63313;DHT22;49442;45.640;13.812;2023-06-19T05:39:10;21.30;93.60
63313;DHT22;49442;45.640;13.812;2023-06-19T05:41:36;21.40;94.60
63313;DHT22;49442;45.640;13.812;2023-06-19T05:44:02;21.60;93.80
63313;DHT22;49442;45.640;13.812;2023-06-19T05:46:28;21.70;93.50
63313;DHT22;49442;45.640;13.812;2023-06-19T05:48:53;21.70;94.50
63313;DHT22;49442;45.640;13.812;2023-06-19T05:51:20;21.80;94.10
63313;DHT22;49442;45.640;13.812;2023-06-19T05:53:45;22.00;96.40
63313;DHT22;49442;45.640;13.812;2023-06-19T05:56:12;22.10;96.90
63313;DHT22;49442;45.640;13.812;2023-06-19T05:58:38;22.20;96.20
63313;DHT22;49442;45.640;13.812;2023-06-19T06:01:04;22.30;97.10
63313;DHT22;49442;45.640;13.812;2023-06-19T06:03:30;22.20;98.70
63313;DHT22;49442;45.640;13.812;2023-06-19T06:05:56;22.30;99.50
63313;DHT22;49442;45.640;13.812;2023-06-19T06:08:30;22.30;99.00
63313;DHT22;49442;45.640;13.812;2023-06-19T06:10:56;22.40;99.90
63313;DHT22;49442;45.640;13.812;2023-06-19T06:13:22;22.40;99.90
63313;DHT22;49442;45.640;13.812;2023-06-19T06:15:47;22.30;99.90
63313;DHT22;49442;45.640;13.812;2023-06-19T06:18:13;22.30;99.90
63313;DHT22;49442;45.640;13.812;2023-06-19T06:20:39;22.30;99.90
63313;DHT22;49442;45.640;13.812;2023-06-19T06:23:05;22.30;99.90
63313;DHT22;49442;45.640;13.812;2023-06-19T06:25:30;22.40;99.90
63313;DHT22;49442;45.640;13.812;2023-06-19T06:27:56;22.40;99.90
63313;DHT22;49442;45.640;13.812;2023-06-19T06:30:22;22.50;99.90
63313;DHT22;49442;45.640;13.812;2023-06-19T06:32:49;22.60;99.90
63313;DHT22;49442;45.640;13.812;2023-06-19T06:35:15;22.70;99.90
63313;DHT22;49442;45.640;13.812;2023-06-19T06:37:41;22.70;99.90
63313;DHT22;49442;45.640;13.812;2023-06-19T06:40:07;22.80;99.90
63313;DHT22;49442;45.640;13.812;2023-06-19T06:42:37;22.80;99.60
63313;DHT22;49442;45.640;13.812;2023-06-19T06:45:07;22.90;99.00
63313;DHT22;49442;45.640;13.812;2023-06-19T06:47:34;23.00;98.80
63313;DHT22;49442;45.640;13.812;2023-06-19T06:49:59;23.00;96.60
63313;DHT22;49442;45.640;13.812;2023-06-19T06:52:25;23.10;94.60
63313;DHT22;49442;45.640;13.812;2023-06-19T06:54:51;23.20;96.00
63313;DHT22;49442;45.640;13.812;2023-06-19T06:57:17;23.30;92.90
63313;DHT22;49442;45.640;13.812;2023-06-19T06:59:42;23.40;95.50
63313;DHT22;49442;45.640;13.812;2023-06-19T07:02:08;23.40;95.40
63313;DHT22;49442;45.640;13.812;2023-06-19T07:04:34;23.50;94.70
63313;DHT22;49442;45.640;13.812;2023-06-19T07:06:59;23.60;94.60
63313;DHT22;49442;45.640;13.812;2023-06-19T07:09:25;23.60;94.30
63313;DHT22;49442;45.640;13.812;2023-06-19T07:11:51;23.70;93.50
63313;DHT22;49442;45.640;13.812;2023-06-19T07:14:16;23.70;92.60
63313;DHT22;49442;45.640;13.812;2023-06-19T07:16:44;23.70;93.20
63313;DHT22;49442;45.640;13.812;2023-06-19T07:19:11;23.80;90.90
63313;DHT22;49442;45.640;13.812;2023-06-19T07:21:37;23.90;91.20
63313;DHT22;49442;45.640;13.812;2023-06-19T07:24:04;24.00;89.20
63313;DHT22;49442;45.640;13.812;2023-06-19T07:26:30;24.10;88.30
63313;DHT22;49442;45.640;13.812;2023-06-19T07:28:56;24.00;89.80
63313;DHT22;49442;45.640;13.812;2023-06-19T07:31:21;24.10;91.40
63313;DHT22;49442;45.640;13.812;2023-06-19T07:33:47;24.20;90.30
63313;DHT22;49442;45.640;13.812;2023-06-19T07:36:13;24.40;87.90
63313;DHT22;49442;45.640;13.812;2023-06-19T07:38:43;24.40;90.30
63313;DHT22;49442;45.640;13.812;2023-06-19T07:41:09;24.50;87.70
63313;DHT22;49442;45.640;13.812;2023-06-19T07:43:35;24.60;88.00
63313;DHT22;49442;45.640;13.812;2023-06-19T07:46:02;24.60;90.30
63313;DHT22;49442;45.640;13.812;2023-06-19T07:48:27;24.60;91.40
63313;DHT22;49442;45.640;13.812;2023-06-19T07:50:54;24.60;92.10
63313;DHT22;49442;45.640;13.812;2023-06-19T07:53:19;24.60;90.30
63313;DHT22;49442;45.640;13.812;2023-06-19T07:55:45;24.60;91.30
63313;DHT22;49442;45.640;13.812;2023-06-19T07:58:11;24.70;93.10
63313;DHT22;49442;45.640;13.812;2023-06-19T08:00:37;24.70;91.30
63313;DHT22;49442;45.640;13.812;2023-06-19T08:03:03;24.80;90.60
63313;DHT22;49442;45.640;13.812;2023-06-19T08:05:29;24.70;90.50
63313;DHT22;49442;45.640;13.812;2023-06-19T08:07:56;24.80;89.20
63313;DHT22;49442;45.640;13.812;2023-06-19T08:10:22;24.90;90.40
63313;DHT22;49442;45.640;13.812;2023-06-19T08:12:47;25.00;92.70
63313;DHT22;49442;45.640;13.812;2023-06-19T08:15:13;25.00;92.70
63313;DHT22;49442;45.640;13.812;2023-06-19T08:17:39;25.00;93.20
63313;DHT22;49442;45.640;13.812;2023-06-19T08:20:06;25.10;94.30
63313;DHT22;49442;45.640;13.812;2023-06-19T08:22:32;25.10;94.10
63313;DHT22;49442;45.640;13.812;2023-06-19T08:24:58;25.10;94.30
63313;DHT22;49442;45.640;13.812;2023-06-19T08:27:24;25.20;94.90
63313;DHT22;49442;45.640;13.812;2023-06-19T08:29:49;25.20;93.80
63313;DHT22;49442;45.640;13.812;2023-06-19T08:32:16;25.20;94.10
63313;DHT22;49442;45.640;13.812;2023-06-19T08:34:41;25.20;94.40
63313;DHT22;49442;45.640;13.812;2023-06-19T08:37:07;25.30;93.00
63313;DHT22;49442;45.640;13.812;2023-06-19T08:39:34;25.40;92.30
63313;DHT22;49442;45.640;13.812;2023-06-19T08:42:04;25.50;93.80
63313;DHT22;49442;45.640;13.812;2023-06-19T08:44:30;25.60;95.50
63313;DHT22;49442;45.640;13.812;2023-06-19T08:46:57;25.70;94.70
63313;DHT22;49442;45.640;13.812;2023-06-19T08:49:23;25.80;92.80
63313;DHT22;49442;45.640;13.812;2023-06-19T08:51:49;25.90;93.00
63313;DHT22;49442;45.640;13.812;2023-06-19T08:54:14;25.90;92.80
63313;DHT22;49442;45.640;13.812;2023-06-19T08:56:40;26.00;92.30
63313;DHT22;49442;45.640;13.812;2023-06-19T08:59:18;26.00;92.30
63313;DHT22;49442;45.640;13.812;2023-06-19T09:01:48;26.10;91.50
63313;DHT22;49442;45.640;13.812;2023-06-19T09:04:21;26.10;91.50
63313;DHT22;49442;45.640;13.812;2023-06-19T09:06:58;26.10;90.40
63313;DHT22;49442;45.640;13.812;2023-06-19T09:09:25;26.10;90.50
63313;DHT22;49442;45.640;13.812;2023-06-19T09:12:17;26.20;88.20
63313;DHT22;49442;45.640;13.812;2023-06-19T09:14:45;26.20;91.30
63313;DHT22;49442;45.640;13.812;2023-06-19T09:17:17;26.30;89.20
63313;DHT22;49442;45.640;13.812;2023-06-19T09:19:51;26.40;90.80
63313;DHT22;49442;45.640;13.812;2023-06-19T09:22:18;26.50;87.80
63313;DHT22;49442;45.640;13.812;2023-06-19T09:24:44;26.50;90.10
63313;DHT22;49442;45.640;13.812;2023-06-19T09:27:15;26.50;90.30
63313;DHT22;49442;45.640;13.812;2023-06-19T09:29:49;26.50;90.90
63313;DHT22;49442;45.640;13.812;2023-06-19T09:32:26;26.50;89.00
63313;DHT22;49442;45.640;13.812;2023-06-19T09:34:54;26.60;90.10
63313;DHT22;49442;45.640;13.812;2023-06-19T09:37:23;26.60;90.30
63313;DHT22;49442;45.640;13.812;2023-06-19T09:39:54;26.50;88.90
63313;DHT22;49442;45.640;13.812;2023-06-19T09:42:42;26.60;90.00
63313;DHT22;49442;45.640;13.812;2023-06-19T09:45:12;26.60;89.10
63313;DHT22;49442;45.640;13.812;2023-06-19T09:47:45;26.60;88.50
63313;DHT22;49442;45.640;13.812;2023-06-19T09:50:15;26.70;88.30
63313;DHT22;49442;45.640;13.812;2023-06-19T09:52:43;26.80;86.30
63313;DHT22;49442;45.640;13.812;2023-06-19T09:55:11;26.60;86.40
63313;DHT22;49442;45.640;13.812;2023-06-19T09:57:39;26.60;88.30
63313;DHT22;49442;45.640;13.812;2023-06-19T10:00:07;26.70;90.00
63313;DHT22;49442;45.640;13.812;2023-06-19T10:02:43;26.70;86.50
63313;DHT22;49442;45.640;13.812;2023-06-19T10:05:10;26.80;90.00
63313;DHT22;49442;45.640;13.812;2023-06-19T10:07:38;26.90;86.00
63313;DHT22;49442;45.640;13.812;2023-06-19T10:10:08;27.00;86.80
63313;DHT22;49442;45.640;13.812;2023-06-19T10:12:44;26.90;85.80
63313;DHT22;49442;45.640;13.812;2023-06-19T10:15:26;26.70;84.40
63313;DHT22;49442;45.640;13.812;2023-06-19T10:17:59;26.80;87.10
63313;DHT22;49442;45.640;13.812;2023-06-19T10:20:32;26.90;88.20
63313;DHT22;49442;45.640;13.812;2023-06-19T10:23:17;27.00;87.10
63313;DHT22;49442;45.640;13.812;2023-06-19T10:25:46;27.00;87.40
63313;DHT22;49442;45.640;13.812;2023-06-19T10:28:26;27.00;88.00
63313;DHT22;49442;45.640;13.812;2023-06-19T10:31:03;27.00;83.00
63313;DHT22;49442;45.640;13.812;2023-06-19T10:33:33;26.90;88.80
63313;DHT22;49442;45.640;13.812;2023-06-19T10:36:00;27.10;87.60
63313;DHT22;49442;45.640;13.812;2023-06-19T10:38:28;27.10;88.30
63313;DHT22;49442;45.640;13.812;2023-06-19T10:40:53;27.20;88.30
63313;DHT22;49442;45.640;13.812;2023-06-19T10:43:23;27.30;88.20
63313;DHT22;49442;45.640;13.812;2023-06-19T10:45:51;27.40;90.10
63313;DHT22;49442;45.640;13.812;2023-06-19T10:48:23;27.40;85.70
63313;DHT22;49442;45.640;13.812;2023-06-19T10:50:50;27.50;88.30
63313;DHT22;49442;45.640;13.812;2023-06-19T10:53:30;27.40;86.10
63313;DHT22;49442;45.640;13.812;2023-06-19T10:56:01;27.50;85.70
63313;DHT22;49442;45.640;13.812;2023-06-19T10:58:27;27.50;86.10
63313;DHT22;49442;45.640;13.812;2023-06-19T11:00:53;27.40;84.60
63313;DHT22;49442;45.640;13.812;2023-06-19T11:03:20;27.40;88.50
63313;DHT22;49442;45.640;13.812;2023-06-19T11:05:47;27.40;86.30
63313;DHT22;49442;45.640;13.812;2023-06-19T11:08:20;27.40;87.00
63313;DHT22;49442;45.640;13.812;2023-06-19T11:10:46;27.40;87.80
63313;DHT22;49442;45.640;13.812;2023-06-19T11:13:19;27.30;87.30
63313;DHT22;49442;45.640;13.812;2023-06-19T11:15:47;27.30;88.90
63313;DHT22;49442;45.640;13.812;2023-06-19T11:18:15;27.20;90.90
63313;DHT22;49442;45.640;13.812;2023-06-19T11:20:49;27.30;90.80
63313;DHT22;49442;45.640;13.812;2023-06-19T11:23:16;27.40;91.30
63313;DHT22;49442;45.640;13.812;2023-06-19T11:25:42;27.40;90.00
63313;DHT22;49442;45.640;13.812;2023-06-19T11:28:16;27.30;91.30
63313;DHT22;49442;45.640;13.812;2023-06-19T11:30:48;27.40;90.80
63313;DHT22;49442;45.640;13.812;2023-06-19T11:33:19;27.40;91.00
63313;DHT22;49442;45.640;13.812;2023-06-19T11:35:52;27.40;92.00
63313;DHT22;49442;45.640;13.812;2023-06-19T11:38:22;27.50;91.70
63313;DHT22;49442;45.640;13.812;2023-06-19T11:40:48;27.40;92.00
63313;DHT22;49442;45.640;13.812;2023-06-19T11:43:28;27.50;92.10
63313;DHT22;49442;45.640;13.812;2023-06-19T11:46:01;27.50;92.50
63313;DHT22;49442;45.640;13.812;2023-06-19T11:48:27;27.60;91.60
63313;DHT22;49442;45.640;13.812;2023-06-19T11:50:53;27.60;91.80
63313;DHT22;49442;45.640;13.812;2023-06-19T11:53:20;27.60;91.80
63313;DHT22;49442;45.640;13.812;2023-06-19T11:55:47;27.70;93.40
63313;DHT22;49442;45.640;13.812;2023-06-19T11:58:12;27.80;92.30
63313;DHT22;49442;45.640;13.812;2023-06-19T12:00:40;27.70;92.70
63313;DHT22;49442;45.640;13.812;2023-06-19T12:03:06;27.80;92.40
63313;DHT22;49442;45.640;13.812;2023-06-19T12:05:32;27.70;93.70
63313;DHT22;49442;45.640;13.812;2023-06-19T12:07:58;27.80;95.20
63313;DHT22;49442;45.640;13.812;2023-06-19T12:10:23;27.80;92.10
63313;DHT22;49442;45.640;13.812;2023-06-19T12:12:49;27.50;92.50
63313;DHT22;49442;45.640;13.812;2023-06-19T12:15:15;27.50;93.90
63313;DHT22;49442;45.640;13.812;2023-06-19T12:17:40;27.60;93.80
63313;DHT22;49442;45.640;13.812;2023-06-19T12:20:07;27.70;94.10
63313;DHT22;49442;45.640;13.812;2023-06-19T12:22:34;27.80;94.30
63313;DHT22;49442;45.640;13.812;2023-06-19T12:25:00;27.70;94.10
63313;DHT22;49442;45.640;13.812;2023-06-19T12:27:26;27.80;94.60
63313;DHT22;49442;45.640;13.812;2023-06-19T12:29:52;27.60;94.40
63313;DHT22;49442;45.640;13.812;2023-06-19T12:32:17;27.70;94.00
63313;DHT22;49442;45.640;13.812;2023-06-19T12:34:43;27.70;94.70
63313;DHT22;49442;45.640;13.812;2023-06-19T12:37:15;27.60;94.90
63313;DHT22;49442;45.640;13.812;2023-06-19T12:39:43;27.60;95.30
63313;DHT22;49442;45.640;13.812;2023-06-19T12:42:09;27.60;94.10
63313;DHT22;49442;45.640;13.812;2023-06-19T12:44:40;27.60;93.50
63313;DHT22;49442;45.640;13.812;2023-06-19T12:47:07;27.70;95.00
63313;DHT22;49442;45.640;13.812;2023-06-19T12:49:33;27.40;92.70
63313;DHT22;49442;45.640;13.812;2023-06-19T12:51:59;27.40;94.10
63313;DHT22;49442;45.640;13.812;2023-06-19T12:54:25;27.50;94.10
63313;DHT22;49442;45.640;13.812;2023-06-19T12:56:51;27.60;94.80
63313;DHT22;49442;45.640;13.812;2023-06-19T12:59:17;27.60;94.10
63313;DHT22;49442;45.640;13.812;2023-06-19T13:01:43;27.60;93.70
63313;DHT22;49442;45.640;13.812;2023-06-19T13:04:09;27.50;94.70
63313;DHT22;49442;45.640;13.812;2023-06-19T13:06:36;27.30;95.50
63313;DHT22;49442;45.640;13.812;2023-06-19T13:09:02;27.50;96.10
63313;DHT22;49442;45.640;13.812;2023-06-19T13:11:28;27.60;95.90
63313;DHT22;49442;45.640;13.812;2023-06-19T13:13:54;27.50;96.00
63313;DHT22;49442;45.640;13.812;2023-06-19T13:16:19;27.60;95.70
63313;DHT22;49442;45.640;13.812;2023-06-19T13:18:45;27.50;96.10
63313;DHT22;49442;45.640;13.812;2023-06-19T13:21:11;27.30;95.60
63313;DHT22;49442;45.640;13.812;2023-06-19T13:23:37;27.40;97.80
63313;DHT22;49442;45.640;13.812;2023-06-19T13:26:05;27.50;97.60
63313;DHT22;49442;45.640;13.812;2023-06-19T13:28:31;27.10;96.50
63313;DHT22;49442;45.640;13.812;2023-06-19T13:30:56;27.10;97.10
63313;DHT22;49442;45.640;13.812;2023-06-19T13:33:22;27.20;99.20
63313;DHT22;49442;45.640;13.812;2023-06-19T13:35:48;27.00;98.50
63313;DHT22;49442;45.640;13.812;2023-06-19T13:38:14;27.20;99.60
63313;DHT22;49442;45.640;13.812;2023-06-19T13:40:41;27.30;99.90
63313;DHT22;49442;45.640;13.812;2023-06-19T13:43:07;27.30;99.90
63313;DHT22;49442;45.640;13.812;2023-06-19T13:45:33;27.30;99.90
63313;DHT22;49442;45.640;13.812;2023-06-19T13:48:00;27.30;99.90
63313;DHT22;49442;45.640;13.812;2023-06-19T13:50:26;27.40;99.90
63313;DHT22;49442;45.640;13.812;2023-06-19T13:52:52;27.60;99.90
63313;DHT22;49442;45.640;13.812;2023-06-19T13:55:17;27.60;99.90
63313;DHT22;49442;45.640;13.812;2023-06-19T13:57:44;27.70;99.90
63313;DHT22;49442;45.640;13.812;2023-06-19T14:00:11;27.70;99.90
63313;DHT22;49442;45.640;13.812;2023-06-19T14:02:37;27.70;99.90
63313;DHT22;49442;45.640;13.812;2023-06-19T14:05:05;27.70;99.90
63313;DHT22;49442;45.640;13.812;2023-06-19T14:07:32;27.60;99.90
63313;DHT22;49442;45.640;13.812;2023-06-19T14:09:57;27.60;99.90
63313;DHT22;49442;45.640;13.812;2023-06-19T14:12:23;27.60;99.90
63313;DHT22;49442;45.640;13.812;2023-06-19T14:14:49;27.60;99.90
63313;DHT22;49442;45.640;13.812;2023-06-19T14:17:14;27.40;99.90
63313;DHT22;49442;45.640;13.812;2023-06-19T14:19:40;27.20;99.90
63313;DHT22;49442;45.640;13.812;2023-06-19T14:22:06;27.40;99.90
63313;DHT22;49442;45.640;13.812;2023-06-19T14:24:32;27.40;99.90
63313;DHT22;49442;45.640;13.812;2023-06-19T14:26:57;27.40;99.90
63313;DHT22;49442;45.640;13.812;2023-06-19T14:29:23;27.50;99.90
63313;DHT22;49442;45.640;13.812;2023-06-19T14:31:51;27.50;99.90
63313;DHT22;49442;45.640;13.812;2023-06-19T14:34:18;27.50;99.90
63313;DHT22;49442;45.640;13.812;2023-06-19T14:36:44;27.50;99.90
63313;DHT22;49442;45.640;13.812;2023-06-19T14:39:09;27.60;99.90
63313;DHT22;49442;45.640;13.812;2023-06-19T14:41:37;27.60;99.90
63313;DHT22;49442;45.640;13.812;2023-06-19T14:44:03;27.60;99.90
63313;DHT22;49442;45.640;13.812;2023-06-19T14:46:30;27.60;99.90
63313;DHT22;49442;45.640;13.812;2023-06-19T14:48:57;27.60;99.90
63313;DHT22;49442;45.640;13.812;2023-06-19T14:51:25;27.60;99.90
63313;DHT22;49442;45.640;13.812;2023-06-19T14:53:51;27.40;99.90
63313;DHT22;49442;45.640;13.812;2023-06-19T14:56:16;27.30;99.90
63313;DHT22;49442;45.640;13.812;2023-06-19T14:58:42;27.50;99.90
63313;DHT22;49442;45.640;13.812;2023-06-19T15:01:08;27.60;99.90
63313;DHT22;49442;45.640;13.812;2023-06-19T15:03:34;27.70;99.90
63313;DHT22;49442;45.640;13.812;2023-06-19T15:06:00;27.60;99.90
63313;DHT22;49442;45.640;13.812;2023-06-19T15:08:26;27.70;99.90
63313;DHT22;49442;45.640;13.812;2023-06-19T15:10:52;27.70;99.90
63313;DHT22;49442;45.640;13.812;2023-06-19T15:13:18;27.60;99.90
63313;DHT22;49442;45.640;13.812;2023-06-19T15:15:44;27.60;99.90
63313;DHT22;49442;45.640;13.812;2023-06-19T15:18:13;27.70;99.90
63313;DHT22;49442;45.640;13.812;2023-06-19T15:20:39;27.80;99.90